sensor_id;sensor_type;location;lat;lon;timestamp;P1;durP1;ratioP1;P2;durP2;ratioP2
11141;SDS011;5625;50.122;19.864;2023-04-15T00:01:56;4.97;;;4.47;;
11141;SDS011;5625;50.122;19.864;2023-04-15T00:04:25;3.77;;;3.47;;
11141;SDS011;5625;50.122;19.864;2023-04-15T00:06:54;4.37;;;3.97;;
11141;SDS011;5625;50.122;19.864;2023-04-15T00:09:24;2.87;;;2.57;;
11141;SDS011;5625;50.122;19.864;2023-04-15T00:11:52;2.63;;;2.07;;
11141;SDS011;5625;50.122;19.864;2023-04-15T00:14:20;2.10;;;1.77;;
11141;SDS011;5625;50.122;19.864;2023-04-15T00:16:48;1.93;;;1.83;;
11141;SDS011;5625;50.122;19.864;2023-04-15T00:19:21;2.40;;;1.97;;
11141;SDS011;5625;50.122;19.864;2023-04-15T00:21:49;3.23;;;2.37;;
11141;SDS011;5625;50.122;19.864;2023-04-15T00:24:18;2.50;;;2.30;;
11141;SDS011;5625;50.122;19.864;2023-04-15T00:26:48;3.53;;;2.43;;
11141;SDS011;5625;50.122;19.864;2023-04-15T00:29:16;4.37;;;2.43;;
11141;SDS011;5625;50.122;19.864;2023-04-15T00:31:44;3.10;;;2.70;;
11141;SDS011;5625;50.122;19.864;2023-04-15T00:34:12;3.53;;;2.97;;
11141;SDS011;5625;50.122;19.864;2023-04-15T00:36:40;3.23;;;2.50;;
11141;SDS011;5625;50.122;19.864;2023-04-15T00:39:08;2.50;;;2.30;;
11141;SDS011;5625;50.122;19.864;2023-04-15T00:41:36;2.67;;;2.47;;
11141;SDS011;5625;50.122;19.864;2023-04-15T00:44:07;1.93;;;1.73;;
11141;SDS011;5625;50.122;19.864;2023-04-15T00:46:35;2.77;;;2.00;;
11141;SDS011;5625;50.122;19.864;2023-04-15T00:49:05;2.10;;;2.00;;
11141;SDS011;5625;50.122;19.864;2023-04-15T00:51:33;2.17;;;1.83;;
11141;SDS011;5625;50.122;19.864;2023-04-15T00:54:02;2.53;;;2.03;;
11141;SDS011;5625;50.122;19.864;2023-04-15T00:56:32;2.10;;;2.00;;
11141;SDS011;5625;50.122;19.864;2023-04-15T00:59:03;2.50;;;2.00;;
11141;SDS011;5625;50.122;19.864;2023-04-15T01:01:34;2.53;;;2.20;;
11141;SDS011;5625;50.122;19.864;2023-04-15T01:04:03;2.23;;;2.03;;
11141;SDS011;5625;50.122;19.864;2023-04-15T01:06:32;2.50;;;2.17;;
11141;SDS011;5625;50.122;19.864;2023-04-15T01:09:00;2.47;;;2.27;;
11141;SDS011;5625;50.122;19.864;2023-04-15T01:11:29;2.60;;;2.40;;
11141;SDS011;5625;50.122;19.864;2023-04-15T01:13:58;2.83;;;2.40;;
11141;SDS011;5625;50.122;19.864;2023-04-15T01:16:27;3.10;;;2.43;;
11141;SDS011;5625;50.122;19.864;2023-04-15T01:18:56;3.03;;;2.50;;
11141;SDS011;5625;50.122;19.864;2023-04-15T01:21:25;2.90;;;2.30;;
11141;SDS011;5625;50.122;19.864;2023-04-15T01:23:53;2.63;;;2.40;;
11141;SDS011;5625;50.122;19.864;2023-04-15T01:26:25;3.07;;;2.17;;
11141;SDS011;5625;50.122;19.864;2023-04-15T01:28:53;1.90;;;1.80;;
11141;SDS011;5625;50.122;19.864;2023-04-15T01:31:21;2.43;;;2.23;;
11141;SDS011;5625;50.122;19.864;2023-04-15T01:33:51;2.33;;;2.10;;
11141;SDS011;5625;50.122;19.864;2023-04-15T01:36:19;2.40;;;2.20;;
11141;SDS011;5625;50.122;19.864;2023-04-15T01:38:47;2.67;;;2.13;;
11141;SDS011;5625;50.122;19.864;2023-04-15T01:41:15;2.37;;;2.17;;
11141;SDS011;5625;50.122;19.864;2023-04-15T01:43:46;2.00;;;1.90;;
11141;SDS011;5625;50.122;19.864;2023-04-15T01:46:14;2.10;;;1.90;;
11141;SDS011;5625;50.122;19.864;2023-04-15T01:48:42;2.37;;;2.17;;
11141;SDS011;5625;50.122;19.864;2023-04-15T01:51:10;1.60;;;1.50;;
11141;SDS011;5625;50.122;19.864;2023-04-15T01:53:39;1.90;;;1.70;;
11141;SDS011;5625;50.122;19.864;2023-04-15T01:56:07;1.83;;;1.70;;
11141;SDS011;5625;50.122;19.864;2023-04-15T01:58:35;1.73;;;1.50;;
11141;SDS011;5625;50.122;19.864;2023-04-15T02:01:04;1.73;;;1.37;;
11141;SDS011;5625;50.122;19.864;2023-04-15T02:03:33;1.77;;;1.67;;
11141;SDS011;5625;50.122;19.864;2023-04-15T02:06:02;1.70;;;1.60;;
11141;SDS011;5625;50.122;19.864;2023-04-15T02:08:31;2.10;;;2.00;;
11141;SDS011;5625;50.122;19.864;2023-04-15T02:10:59;3.07;;;2.17;;
11141;SDS011;5625;50.122;19.864;2023-04-15T02:13:27;2.03;;;1.93;;
11141;SDS011;5625;50.122;19.864;2023-04-15T02:15:55;2.83;;;2.63;;
11141;SDS011;5625;50.122;19.864;2023-04-15T02:18:24;4.17;;;2.50;;
11141;SDS011;5625;50.122;19.864;2023-04-15T02:20:52;3.37;;;2.30;;
11141;SDS011;5625;50.122;19.864;2023-04-15T02:23:21;3.20;;;2.90;;
11141;SDS011;5625;50.122;19.864;2023-04-15T02:25:49;3.73;;;2.90;;
11141;SDS011;5625;50.122;19.864;2023-04-15T02:28:19;3.73;;;3.10;;
11141;SDS011;5625;50.122;19.864;2023-04-15T02:30:47;3.80;;;2.97;;
11141;SDS011;5625;50.122;19.864;2023-04-15T02:33:18;4.63;;;3.00;;
11141;SDS011;5625;50.122;19.864;2023-04-15T02:35:48;4.60;;;2.90;;
11141;SDS011;5625;50.122;19.864;2023-04-15T02:38:16;2.90;;;2.60;;
11141;SDS011;5625;50.122;19.864;2023-04-15T02:40:44;3.70;;;2.83;;
11141;SDS011;5625;50.122;19.864;2023-04-15T02:43:14;3.33;;;3.03;;
11141;SDS011;5625;50.122;19.864;2023-04-15T02:45:43;4.27;;;3.00;;
11141;SDS011;5625;50.122;19.864;2023-04-15T02:48:12;4.53;;;3.07;;
11141;SDS011;5625;50.122;19.864;2023-04-15T02:50:43;4.00;;;2.90;;
11141;SDS011;5625;50.122;19.864;2023-04-15T02:53:13;3.37;;;2.70;;
11141;SDS011;5625;50.122;19.864;2023-04-15T02:55:41;3.27;;;2.57;;
11141;SDS011;5625;50.122;19.864;2023-04-15T02:58:09;3.53;;;3.07;;
11141;SDS011;5625;50.122;19.864;2023-04-15T03:00:37;3.07;;;2.73;;
11141;SDS011;5625;50.122;19.864;2023-04-15T03:03:05;2.97;;;2.70;;
11141;SDS011;5625;50.122;19.864;2023-04-15T03:05:36;3.87;;;2.80;;
11141;SDS011;5625;50.122;19.864;2023-04-15T03:08:04;3.63;;;2.60;;
11141;SDS011;5625;50.122;19.864;2023-04-15T03:10:34;4.60;;;2.90;;
11141;SDS011;5625;50.122;19.864;2023-04-15T03:13:02;3.10;;;2.80;;
11141;SDS011;5625;50.122;19.864;2023-04-15T03:15:31;2.70;;;2.13;;
11141;SDS011;5625;50.122;19.864;2023-04-15T03:18:01;2.90;;;2.70;;
11141;SDS011;5625;50.122;19.864;2023-04-15T03:20:29;3.10;;;2.80;;
11141;SDS011;5625;50.122;19.864;2023-04-15T03:22:57;3.33;;;2.80;;
11141;SDS011;5625;50.122;19.864;2023-04-15T03:25:25;5.67;;;2.90;;
11141;SDS011;5625;50.122;19.864;2023-04-15T03:27:54;2.50;;;2.30;;
11141;SDS011;5625;50.122;19.864;2023-04-15T03:30:23;3.10;;;2.80;;
11141;SDS011;5625;50.122;19.864;2023-04-15T03:32:51;3.17;;;2.47;;
11141;SDS011;5625;50.122;19.864;2023-04-15T03:35:19;2.73;;;2.40;;
11141;SDS011;5625;50.122;19.864;2023-04-15T03:37:47;2.50;;;2.30;;
11141;SDS011;5625;50.122;19.864;2023-04-15T03:40:16;3.07;;;2.40;;
11141;SDS011;5625;50.122;19.864;2023-04-15T03:42:44;3.10;;;2.20;;
11141;SDS011;5625;50.122;19.864;2023-04-15T03:45:13;3.30;;;2.17;;
11141;SDS011;5625;50.122;19.864;2023-04-15T03:47:41;2.43;;;2.17;;
11141;SDS011;5625;50.122;19.864;2023-04-15T03:50:10;2.30;;;2.10;;
11141;SDS011;5625;50.122;19.864;2023-04-15T03:52:38;3.10;;;1.93;;
11141;SDS011;5625;50.122;19.864;2023-04-15T03:55:06;3.73;;;2.30;;
11141;SDS011;5625;50.122;19.864;2023-04-15T03:57:35;2.50;;;2.30;;
11141;SDS011;5625;50.122;19.864;2023-04-15T04:00:05;2.50;;;2.30;;
11141;SDS011;5625;50.122;19.864;2023-04-15T04:02:36;2.43;;;2.20;;
11141;SDS011;5625;50.122;19.864;2023-04-15T04:05:05;3.00;;;2.37;;
11141;SDS011;5625;50.122;19.864;2023-04-15T04:07:33;3.00;;;2.27;;
11141;SDS011;5625;50.122;19.864;2023-04-15T04:10:02;2.97;;;2.40;;
11141;SDS011;5625;50.122;19.864;2023-04-15T04:12:30;5.00;;;2.50;;
11141;SDS011;5625;50.122;19.864;2023-04-15T04:14:58;3.53;;;2.97;;
11141;SDS011;5625;50.122;19.864;2023-04-15T04:17:26;3.50;;;3.20;;
11141;SDS011;5625;50.122;19.864;2023-04-15T04:19:55;4.60;;;2.97;;
11141;SDS011;5625;50.122;19.864;2023-04-15T04:22:23;3.77;;;3.37;;
11141;SDS011;5625;50.122;19.864;2023-04-15T04:24:51;5.27;;;3.30;;
11141;SDS011;5625;50.122;19.864;2023-04-15T04:27:19;5.03;;;3.20;;
11141;SDS011;5625;50.122;19.864;2023-04-15T04:29:47;3.07;;;2.70;;
11141;SDS011;5625;50.122;19.864;2023-04-15T04:32:15;4.03;;;3.33;;
11141;SDS011;5625;50.122;19.864;2023-04-15T04:34:43;5.40;;;3.83;;
11141;SDS011;5625;50.122;19.864;2023-04-15T04:37:13;4.17;;;3.23;;
11141;SDS011;5625;50.122;19.864;2023-04-15T04:39:41;3.93;;;3.53;;
11141;SDS011;5625;50.122;19.864;2023-04-15T04:42:12;6.37;;;3.70;;
11141;SDS011;5625;50.122;19.864;2023-04-15T04:44:40;3.60;;;3.30;;
11141;SDS011;5625;50.122;19.864;2023-04-15T04:47:08;3.97;;;3.57;;
11141;SDS011;5625;50.122;19.864;2023-04-15T04:49:37;3.03;;;2.67;;
11141;SDS011;5625;50.122;19.864;2023-04-15T04:52:06;2.90;;;2.57;;
11141;SDS011;5625;50.122;19.864;2023-04-15T04:54:35;3.33;;;2.90;;
11141;SDS011;5625;50.122;19.864;2023-04-15T04:57:03;4.10;;;3.10;;
11141;SDS011;5625;50.122;19.864;2023-04-15T04:59:33;3.63;;;3.27;;
11141;SDS011;5625;50.122;19.864;2023-04-15T05:02:01;4.90;;;3.30;;
11141;SDS011;5625;50.122;19.864;2023-04-15T05:04:29;3.27;;;2.97;;
11141;SDS011;5625;50.122;19.864;2023-04-15T05:06:57;4.90;;;3.40;;
11141;SDS011;5625;50.122;19.864;2023-04-15T05:09:25;3.60;;;3.30;;
11141;SDS011;5625;50.122;19.864;2023-04-15T05:11:56;3.27;;;2.70;;
11141;SDS011;5625;50.122;19.864;2023-04-15T05:14:24;5.40;;;2.93;;
11141;SDS011;5625;50.122;19.864;2023-04-15T05:16:52;2.67;;;2.33;;
11141;SDS011;5625;50.122;19.864;2023-04-15T05:19:20;2.57;;;2.37;;
11141;SDS011;5625;50.122;19.864;2023-04-15T05:21:48;2.53;;;2.03;;
11141;SDS011;5625;50.122;19.864;2023-04-15T05:24:16;2.67;;;2.10;;
11141;SDS011;5625;50.122;19.864;2023-04-15T05:26:44;3.10;;;2.13;;
11141;SDS011;5625;50.122;19.864;2023-04-15T05:29:14;3.83;;;2.60;;
11141;SDS011;5625;50.122;19.864;2023-04-15T05:31:42;2.27;;;2.03;;
11141;SDS011;5625;50.122;19.864;2023-04-15T05:34:10;2.70;;;2.13;;
11141;SDS011;5625;50.122;19.864;2023-04-15T05:36:41;2.47;;;2.27;;
11141;SDS011;5625;50.122;19.864;2023-04-15T05:39:09;5.73;;;3.57;;
11141;SDS011;5625;50.122;19.864;2023-04-15T05:41:37;9.00;;;5.47;;
11141;SDS011;5625;50.122;19.864;2023-04-15T05:44:05;8.93;;;4.93;;
11141;SDS011;5625;50.122;19.864;2023-04-15T05:46:34;6.73;;;4.70;;
11141;SDS011;5625;50.122;19.864;2023-04-15T05:49:03;7.27;;;3.73;;
11141;SDS011;5625;50.122;19.864;2023-04-15T05:51:34;6.07;;;4.33;;
11141;SDS011;5625;50.122;19.864;2023-04-15T05:54:02;6.20;;;4.50;;
11141;SDS011;5625;50.122;19.864;2023-04-15T05:56:30;7.80;;;5.60;;
11141;SDS011;5625;50.122;19.864;2023-04-15T05:59:01;8.77;;;5.77;;
11141;SDS011;5625;50.122;19.864;2023-04-15T06:01:29;7.97;;;5.60;;
11141;SDS011;5625;50.122;19.864;2023-04-15T06:03:58;8.87;;;5.30;;
11141;SDS011;5625;50.122;19.864;2023-04-15T06:06:27;6.97;;;5.17;;
11141;SDS011;5625;50.122;19.864;2023-04-15T06:08:55;9.43;;;5.30;;
11141;SDS011;5625;50.122;19.864;2023-04-15T06:11:23;6.20;;;4.10;;
11141;SDS011;5625;50.122;19.864;2023-04-15T06:13:51;6.73;;;3.83;;
11141;SDS011;5625;50.122;19.864;2023-04-15T06:16:19;5.70;;;3.70;;
11141;SDS011;5625;50.122;19.864;2023-04-15T06:18:48;4.20;;;3.60;;
11141;SDS011;5625;50.122;19.864;2023-04-15T06:21:17;3.67;;;2.70;;
11141;SDS011;5625;50.122;19.864;2023-04-15T06:23:46;3.70;;;2.70;;
11141;SDS011;5625;50.122;19.864;2023-04-15T06:26:14;2.97;;;2.30;;
11141;SDS011;5625;50.122;19.864;2023-04-15T06:28:42;2.17;;;1.87;;
11141;SDS011;5625;50.122;19.864;2023-04-15T06:31:10;4.23;;;2.30;;
11141;SDS011;5625;50.122;19.864;2023-04-15T06:33:38;2.40;;;1.90;;
11141;SDS011;5625;50.122;19.864;2023-04-15T06:36:06;2.07;;;1.67;;
11141;SDS011;5625;50.122;19.864;2023-04-15T06:38:35;1.30;;;1.20;;
11141;SDS011;5625;50.122;19.864;2023-04-15T06:41:03;1.73;;;1.47;;
11141;SDS011;5625;50.122;19.864;2023-04-15T06:43:34;1.60;;;1.50;;
11141;SDS011;5625;50.122;19.864;2023-04-15T06:46:02;2.07;;;1.60;;
11141;SDS011;5625;50.122;19.864;2023-04-15T06:48:31;4.13;;;2.90;;
11141;SDS011;5625;50.122;19.864;2023-04-15T06:51:02;4.53;;;3.43;;
11141;SDS011;5625;50.122;19.864;2023-04-15T06:53:30;3.90;;;2.33;;
11141;SDS011;5625;50.122;19.864;2023-04-15T06:56:00;2.60;;;2.40;;
11141;SDS011;5625;50.122;19.864;2023-04-15T06:58:28;3.93;;;2.60;;
11141;SDS011;5625;50.122;19.864;2023-04-15T07:00:56;2.53;;;2.33;;
11141;SDS011;5625;50.122;19.864;2023-04-15T07:03:24;3.70;;;2.40;;
11141;SDS011;5625;50.122;19.864;2023-04-15T07:05:52;2.23;;;1.93;;
11141;SDS011;5625;50.122;19.864;2023-04-15T07:08:20;1.83;;;1.73;;
11141;SDS011;5625;50.122;19.864;2023-04-15T07:10:49;5.17;;;3.20;;
11141;SDS011;5625;50.122;19.864;2023-04-15T07:13:19;4.47;;;3.50;;
11141;SDS011;5625;50.122;19.864;2023-04-15T07:15:47;3.00;;;2.80;;
11141;SDS011;5625;50.122;19.864;2023-04-15T07:18:14;2.53;;;2.33;;
11141;SDS011;5625;50.122;19.864;2023-04-15T07:20:43;3.23;;;2.70;;
11141;SDS011;5625;50.122;19.864;2023-04-15T07:23:11;3.67;;;2.87;;
11141;SDS011;5625;50.122;19.864;2023-04-15T07:25:39;2.70;;;2.50;;
11141;SDS011;5625;50.122;19.864;2023-04-15T07:28:07;3.93;;;2.70;;
11141;SDS011;5625;50.122;19.864;2023-04-15T07:30:36;3.30;;;3.00;;
11141;SDS011;5625;50.122;19.864;2023-04-15T07:33:05;4.03;;;2.57;;
11141;SDS011;5625;50.122;19.864;2023-04-15T07:35:35;3.47;;;2.93;;
11141;SDS011;5625;50.122;19.864;2023-04-15T07:38:03;4.63;;;3.17;;
11141;SDS011;5625;50.122;19.864;2023-04-15T07:40:32;3.60;;;3.30;;
11141;SDS011;5625;50.122;19.864;2023-04-15T07:43:00;3.80;;;3.50;;
11141;SDS011;5625;50.122;19.864;2023-04-15T07:45:28;4.60;;;3.00;;
11141;SDS011;5625;50.122;19.864;2023-04-15T07:48:00;3.37;;;3.07;;
11141;SDS011;5625;50.122;19.864;2023-04-15T07:50:29;3.33;;;2.57;;
11141;SDS011;5625;50.122;19.864;2023-04-15T07:52:57;4.30;;;2.67;;
11141;SDS011;5625;50.122;19.864;2023-04-15T07:55:25;3.73;;;3.20;;
11141;SDS011;5625;50.122;19.864;2023-04-15T07:57:53;3.13;;;2.40;;
11141;SDS011;5625;50.122;19.864;2023-04-15T08:00:21;3.97;;;2.73;;
11141;SDS011;5625;50.122;19.864;2023-04-15T08:02:52;3.53;;;2.70;;
11141;SDS011;5625;50.122;19.864;2023-04-15T08:05:27;3.93;;;2.60;;
11141;SDS011;5625;50.122;19.864;2023-04-15T08:07:55;2.90;;;2.50;;
11141;SDS011;5625;50.122;19.864;2023-04-15T08:10:23;3.77;;;2.60;;
11141;SDS011;5625;50.122;19.864;2023-04-15T08:12:51;3.15;;;2.55;;
11141;SDS011;5625;50.122;19.864;2023-04-15T08:15:22;2.80;;;2.47;;
11141;SDS011;5625;50.122;19.864;2023-04-15T08:17:50;4.07;;;2.53;;
11141;SDS011;5625;50.122;19.864;2023-04-15T08:20:20;3.13;;;2.27;;
11141;SDS011;5625;50.122;19.864;2023-04-15T08:22:53;2.47;;;2.27;;
11141;SDS011;5625;50.122;19.864;2023-04-15T08:25:20;2.40;;;2.20;;
11141;SDS011;5625;50.122;19.864;2023-04-15T08:27:48;2.70;;;2.50;;
11141;SDS011;5625;50.122;19.864;2023-04-15T08:30:16;2.50;;;2.30;;
11141;SDS011;5625;50.122;19.864;2023-04-15T08:32:45;3.87;;;2.30;;
11141;SDS011;5625;50.122;19.864;2023-04-15T08:35:16;1.70;;;1.60;;
11141;SDS011;5625;50.122;19.864;2023-04-15T08:37:44;1.70;;;1.60;;
11141;SDS011;5625;50.122;19.864;2023-04-15T08:40:14;1.70;;;1.60;;
11141;SDS011;5625;50.122;19.864;2023-04-15T08:42:45;1.70;;;1.60;;
11141;SDS011;5625;50.122;19.864;2023-04-15T08:45:17;1.70;;;1.47;;
11141;SDS011;5625;50.122;19.864;2023-04-15T08:47:47;2.70;;;1.60;;
11141;SDS011;5625;50.122;19.864;2023-04-15T08:50:21;2.70;;;1.80;;
11141;SDS011;5625;50.122;19.864;2023-04-15T08:52:52;2.47;;;2.27;;
11141;SDS011;5625;50.122;19.864;2023-04-15T08:55:24;3.37;;;2.40;;
11141;SDS011;5625;50.122;19.864;2023-04-15T08:57:56;3.27;;;2.97;;
11141;SDS011;5625;50.122;19.864;2023-04-15T09:00:24;4.20;;;3.17;;
11141;SDS011;5625;50.122;19.864;2023-04-15T09:02:52;3.23;;;2.93;;
11141;SDS011;5625;50.122;19.864;2023-04-15T09:05:22;3.67;;;2.83;;
11141;SDS011;5625;50.122;19.864;2023-04-15T09:07:50;3.30;;;3.00;;
11141;SDS011;5625;50.122;19.864;2023-04-15T09:10:18;3.20;;;2.90;;
11141;SDS011;5625;50.122;19.864;2023-04-15T09:12:47;2.60;;;2.40;;
11141;SDS011;5625;50.122;19.864;2023-04-15T09:15:15;3.00;;;2.30;;
11141;SDS011;5625;50.122;19.864;2023-04-15T09:17:45;3.73;;;2.60;;
11141;SDS011;5625;50.122;19.864;2023-04-15T09:20:14;3.23;;;2.00;;
11141;SDS011;5625;50.122;19.864;2023-04-15T09:22:44;2.10;;;2.00;;
11141;SDS011;5625;50.122;19.864;2023-04-15T09:25:27;3.27;;;2.07;;
11141;SDS011;5625;50.122;19.864;2023-04-15T09:28:01;3.03;;;1.70;;
11141;SDS011;5625;50.122;19.864;2023-04-15T09:30:29;1.83;;;1.73;;
11141;SDS011;5625;50.122;19.864;2023-04-15T09:32:58;2.00;;;1.57;;
11141;SDS011;5625;50.122;19.864;2023-04-15T09:35:27;2.03;;;1.40;;
11141;SDS011;5625;50.122;19.864;2023-04-15T09:38:00;1.50;;;1.30;;
11141;SDS011;5625;50.122;19.864;2023-04-15T09:40:30;1.00;;;1.00;;
11141;SDS011;5625;50.122;19.864;2023-04-15T09:43:04;1.97;;;1.03;;
11141;SDS011;5625;50.122;19.864;2023-04-15T09:45:33;1.37;;;1.27;;
11141;SDS011;5625;50.122;19.864;2023-04-15T09:48:15;1.87;;;1.30;;
11141;SDS011;5625;50.122;19.864;2023-04-15T09:50:46;1.20;;;1.10;;
11141;SDS011;5625;50.122;19.864;2023-04-15T09:53:15;1.43;;;1.33;;
11141;SDS011;5625;50.122;19.864;2023-04-15T09:55:48;1.57;;;1.27;;
11141;SDS011;5625;50.122;19.864;2023-04-15T09:58:18;1.10;;;1.10;;
11141;SDS011;5625;50.122;19.864;2023-04-15T10:00:48;1.90;;;1.00;;
11141;SDS011;5625;50.122;19.864;2023-04-15T10:03:18;1.20;;;1.20;;
11141;SDS011;5625;50.122;19.864;2023-04-15T10:05:48;2.03;;;1.30;;
11141;SDS011;5625;50.122;19.864;2023-04-15T10:08:18;1.43;;;0.90;;
11141;SDS011;5625;50.122;19.864;2023-04-15T10:10:47;1.07;;;0.90;;
11141;SDS011;5625;50.122;19.864;2023-04-15T10:13:21;1.50;;;1.30;;
11141;SDS011;5625;50.122;19.864;2023-04-15T10:15:55;1.40;;;1.30;;
11141;SDS011;5625;50.122;19.864;2023-04-15T10:18:25;1.30;;;1.20;;
11141;SDS011;5625;50.122;19.864;2023-04-15T10:20:54;1.47;;;1.37;;
11141;SDS011;5625;50.122;19.864;2023-04-15T10:23:23;1.67;;;1.40;;
11141;SDS011;5625;50.122;19.864;2023-04-15T10:25:52;1.43;;;1.33;;
11141;SDS011;5625;50.122;19.864;2023-04-15T10:28:22;2.10;;;1.30;;
11141;SDS011;5625;50.122;19.864;2023-04-15T10:30:51;1.60;;;1.47;;
11141;SDS011;5625;50.122;19.864;2023-04-15T10:33:20;2.20;;;1.60;;
11141;SDS011;5625;50.122;19.864;2023-04-15T10:35:50;1.60;;;1.50;;
11141;SDS011;5625;50.122;19.864;2023-04-15T10:38:33;1.70;;;1.60;;
11141;SDS011;5625;50.122;19.864;2023-04-15T10:41:11;3.43;;;1.50;;
11141;SDS011;5625;50.122;19.864;2023-04-15T10:43:48;1.30;;;1.20;;
11141;SDS011;5625;50.122;19.864;2023-04-15T10:46:20;1.47;;;1.30;;
11141;SDS011;5625;50.122;19.864;2023-04-15T10:48:51;2.57;;;1.10;;
11141;SDS011;5625;50.122;19.864;2023-04-15T10:51:27;1.33;;;1.23;;
11141;SDS011;5625;50.122;19.864;2023-04-15T10:53:56;1.00;;;1.00;;
11141;SDS011;5625;50.122;19.864;2023-04-15T10:56:27;1.80;;;1.50;;
11141;SDS011;5625;50.122;19.864;2023-04-15T10:58:59;1.33;;;1.23;;
11141;SDS011;5625;50.122;19.864;2023-04-15T11:07:33;1.63;;;1.23;;
11141;SDS011;5625;50.122;19.864;2023-04-15T11:13:22;1.40;;;1.30;;
11141;SDS011;5625;50.122;19.864;2023-04-15T11:16:05;2.77;;;1.57;;
11141;SDS011;5625;50.122;19.864;2023-04-15T11:18:33;2.00;;;1.50;;
11141;SDS011;5625;50.122;19.864;2023-04-15T11:21:02;1.10;;;1.10;;
11141;SDS011;5625;50.122;19.864;2023-04-15T11:23:33;1.70;;;1.60;;
11141;SDS011;5625;50.122;19.864;2023-04-15T11:26:04;1.33;;;1.20;;
11141;SDS011;5625;50.122;19.864;2023-04-15T11:28:34;1.63;;;1.50;;
11141;SDS011;5625;50.122;19.864;2023-04-15T11:31:06;1.63;;;1.27;;
11141;SDS011;5625;50.122;19.864;2023-04-15T11:33:37;1.43;;;1.23;;
11141;SDS011;5625;50.122;19.864;2023-04-15T11:36:12;2.67;;;1.53;;
11141;SDS011;5625;50.122;19.864;2023-04-15T11:38:43;3.30;;;1.47;;
11141;SDS011;5625;50.122;19.864;2023-04-15T11:41:13;3.00;;;1.67;;
11141;SDS011;5625;50.122;19.864;2023-04-15T11:43:41;1.30;;;1.20;;
11141;SDS011;5625;50.122;19.864;2023-04-15T11:46:11;2.30;;;1.33;;
11141;SDS011;5625;50.122;19.864;2023-04-15T11:48:41;2.30;;;1.70;;
11141;SDS011;5625;50.122;19.864;2023-04-15T11:51:10;2.27;;;1.57;;
11141;SDS011;5625;50.122;19.864;2023-04-15T11:53:39;2.57;;;1.67;;
11141;SDS011;5625;50.122;19.864;2023-04-15T11:56:10;1.83;;;1.67;;
11141;SDS011;5625;50.122;19.864;2023-04-15T11:58:43;1.87;;;1.73;;
11141;SDS011;5625;50.122;19.864;2023-04-15T12:01:13;2.27;;;2.00;;
11141;SDS011;5625;50.122;19.864;2023-04-15T12:03:41;2.90;;;1.80;;
11141;SDS011;5625;50.122;19.864;2023-04-15T12:06:13;2.03;;;1.83;;
11141;SDS011;5625;50.122;19.864;2023-04-15T12:08:49;1.60;;;1.50;;
11141;SDS011;5625;50.122;19.864;2023-04-15T12:11:34;2.20;;;1.67;;
11141;SDS011;5625;50.122;19.864;2023-04-15T12:14:10;2.23;;;1.60;;
11141;SDS011;5625;50.122;19.864;2023-04-15T12:16:44;1.70;;;1.60;;
11141;SDS011;5625;50.122;19.864;2023-04-15T12:19:18;2.57;;;2.10;;
11141;SDS011;5625;50.122;19.864;2023-04-15T12:21:49;2.13;;;1.93;;
11141;SDS011;5625;50.122;19.864;2023-04-15T12:24:19;2.27;;;2.10;;
11141;SDS011;5625;50.122;19.864;2023-04-15T12:26:49;2.80;;;2.10;;
11141;SDS011;5625;50.122;19.864;2023-04-15T12:29:18;1.90;;;1.70;;
11141;SDS011;5625;50.122;19.864;2023-04-15T12:31:55;1.67;;;1.57;;
11141;SDS011;5625;50.122;19.864;2023-04-15T12:34:25;2.20;;;2.00;;
11141;SDS011;5625;50.122;19.864;2023-04-15T12:36:55;2.40;;;2.20;;
11141;SDS011;5625;50.122;19.864;2023-04-15T12:39:24;2.60;;;2.40;;
11141;SDS011;5625;50.122;19.864;2023-04-15T12:41:56;2.33;;;2.13;;
11141;SDS011;5625;50.122;19.864;2023-04-15T12:44:24;2.67;;;2.17;;
11141;SDS011;5625;50.122;19.864;2023-04-15T12:46:54;2.40;;;2.20;;
11141;SDS011;5625;50.122;19.864;2023-04-15T12:49:25;2.40;;;2.20;;
11141;SDS011;5625;50.122;19.864;2023-04-15T12:51:55;2.83;;;2.53;;
11141;SDS011;5625;50.122;19.864;2023-04-15T12:54:25;3.10;;;2.80;;
11141;SDS011;5625;50.122;19.864;2023-04-15T12:56:53;2.17;;;2.07;;
11141;SDS011;5625;50.122;19.864;2023-04-15T12:59:22;1.90;;;1.80;;
11141;SDS011;5625;50.122;19.864;2023-04-15T13:01:52;2.57;;;2.37;;
11141;SDS011;5625;50.122;19.864;2023-04-15T13:04:22;2.40;;;2.10;;
11141;SDS011;5625;50.122;19.864;2023-04-15T13:06:55;2.30;;;2.10;;
11141;SDS011;5625;50.122;19.864;2023-04-15T13:09:23;2.20;;;2.00;;
11141;SDS011;5625;50.122;19.864;2023-04-15T13:11:52;2.50;;;2.30;;
11141;SDS011;5625;50.122;19.864;2023-04-15T13:14:21;2.20;;;2.00;;
11141;SDS011;5625;50.122;19.864;2023-04-15T13:16:50;2.57;;;2.37;;
11141;SDS011;5625;50.122;19.864;2023-04-15T13:19:20;3.43;;;1.97;;
11141;SDS011;5625;50.122;19.864;2023-04-15T13:21:48;2.87;;;1.70;;
11141;SDS011;5625;50.122;19.864;2023-04-15T13:24:16;2.90;;;1.47;;
11141;SDS011;5625;50.122;19.864;2023-04-15T13:26:44;1.63;;;1.27;;
11141;SDS011;5625;50.122;19.864;2023-04-15T13:29:15;2.10;;;1.70;;
11141;SDS011;5625;50.122;19.864;2023-04-15T13:31:43;1.57;;;1.47;;
11141;SDS011;5625;50.122;19.864;2023-04-15T13:34:14;1.40;;;1.30;;
11141;SDS011;5625;50.122;19.864;2023-04-15T13:36:43;1.50;;;1.40;;
11141;SDS011;5625;50.122;19.864;2023-04-15T13:39:11;2.33;;;1.60;;
11141;SDS011;5625;50.122;19.864;2023-04-15T13:41:39;2.43;;;1.90;;
11141;SDS011;5625;50.122;19.864;2023-04-15T13:44:08;2.83;;;1.80;;
11141;SDS011;5625;50.122;19.864;2023-04-15T13:46:37;2.20;;;2.00;;
11141;SDS011;5625;50.122;19.864;2023-04-15T13:49:08;2.57;;;2.20;;
11141;SDS011;5625;50.122;19.864;2023-04-15T13:51:36;2.37;;;2.00;;
11141;SDS011;5625;50.122;19.864;2023-04-15T13:54:07;1.67;;;1.57;;
11141;SDS011;5625;50.122;19.864;2023-04-15T13:56:35;1.30;;;1.20;;
11141;SDS011;5625;50.122;19.864;2023-04-15T13:59:03;1.37;;;1.27;;
11141;SDS011;5625;50.122;19.864;2023-04-15T14:01:32;1.43;;;1.10;;
11141;SDS011;5625;50.122;19.864;2023-04-15T14:04:01;1.40;;;1.20;;
11141;SDS011;5625;50.122;19.864;2023-04-15T14:06:32;1.57;;;1.47;;
11141;SDS011;5625;50.122;19.864;2023-04-15T14:09:00;3.13;;;1.40;;
11141;SDS011;5625;50.122;19.864;2023-04-15T14:11:31;1.50;;;1.40;;
11141;SDS011;5625;50.122;19.864;2023-04-15T14:14:00;1.90;;;1.50;;
11141;SDS011;5625;50.122;19.864;2023-04-15T14:16:29;1.97;;;1.50;;
11141;SDS011;5625;50.122;19.864;2023-04-15T14:18:58;1.50;;;1.37;;
11141;SDS011;5625;50.122;19.864;2023-04-15T14:21:26;2.17;;;1.40;;
11141;SDS011;5625;50.122;19.864;2023-04-15T14:23:57;4.60;;;1.83;;
11141;SDS011;5625;50.122;19.864;2023-04-15T14:26:25;1.43;;;1.33;;
11141;SDS011;5625;50.122;19.864;2023-04-15T14:28:54;2.73;;;2.07;;
11141;SDS011;5625;50.122;19.864;2023-04-15T14:31:22;1.57;;;1.47;;
11141;SDS011;5625;50.122;19.864;2023-04-15T14:33:51;1.73;;;1.63;;
11141;SDS011;5625;50.122;19.864;2023-04-15T14:36:18;1.70;;;1.60;;
11141;SDS011;5625;50.122;19.864;2023-04-15T14:38:47;2.40;;;1.80;;
11141;SDS011;5625;50.122;19.864;2023-04-15T14:41:15;1.50;;;1.40;;
11141;SDS011;5625;50.122;19.864;2023-04-15T14:43:43;1.90;;;1.80;;
11141;SDS011;5625;50.122;19.864;2023-04-15T14:46:12;2.20;;;2.00;;
11141;SDS011;5625;50.122;19.864;2023-04-15T14:48:41;1.83;;;1.73;;
11141;SDS011;5625;50.122;19.864;2023-04-15T14:51:09;1.70;;;1.60;;
11141;SDS011;5625;50.122;19.864;2023-04-15T14:53:37;2.47;;;1.60;;
11141;SDS011;5625;50.122;19.864;2023-04-15T14:56:05;2.13;;;1.73;;
11141;SDS011;5625;50.122;19.864;2023-04-15T14:58:33;2.00;;;1.80;;
11141;SDS011;5625;50.122;19.864;2023-04-15T15:01:02;2.10;;;1.90;;
11141;SDS011;5625;50.122;19.864;2023-04-15T15:03:32;3.33;;;1.80;;
11141;SDS011;5625;50.122;19.864;2023-04-15T15:06:00;2.20;;;1.60;;
11141;SDS011;5625;50.122;19.864;2023-04-15T15:08:28;2.40;;;2.20;;
11141;SDS011;5625;50.122;19.864;2023-04-15T15:10:56;2.77;;;1.93;;